Glencove, Washington
Current Conditions -  °F | °C
As of 3:53 AM on Monday 24 Nov 2014 (Local Time) from KTIW Reporting Station
Clear Clear  
Wind Chill:   Ceiling: Unl
Heat Index:   Visibility: 10mi
Dew Point:   Wind: 3mph
Humidity: 89%   Direction: 170°S
Pressure: 30.35"   Gusts: NA
Location:  47.2986°N, 122.616°W
Report Text: KTIW 241153Z AUTO 17003KT 10SM CLR 05/03 A3035 RMK AO2 SLP280 70038 T00500033 10083 20044 58005
Loading
Personal Weather Stations






























Interactive Weather Map New forecast layout! Learn more

10-Day Weather Forecast

Advertisements
Track Severe Weather on mobile